Virginia City, Montana
Current Conditions -  °F | °C
As of 1:53 PM on Sunday 23 Nov 2014 (Local Time) from KDLN Reporting Station
Broken Clouds Broken Clouds  
Wind Chill: 26°   Ceiling: 7000
Heat Index: 36°   Visibility: 10mi
Dew Point: 18°   Wind: 17mph
Humidity: 48%   Direction: 230°SW
Pressure: 30.01"   Gusts: NA
Location:  45.29°N, 111.95°W
Report Text: KDLN 232053Z AUTO 23015KT 10SM BKN070 BKN085 BKN100 02/M08 A3001 RMK AO2 SLP188 T00221078 58012
Loading
Personal Weather Stations






























Interactive Weather Map New forecast layout! Learn more

10-Day Weather Forecast

Advertisements
Track Severe Weather on mobile